Wednesday, January 16, 2019, 12:32 AM GMT
Back to Local

CXKT, Kentville , N. S.

Location: , , Canada Lat: 45.067
Local Time: 12:32 AM GMT ( 0:32 GMT) Lon: -64.483
Time Zone: GMT Elev: 160 ft

Show me the last for .
Show Coded

Time T Td Feel RH Dir Speed Gust Alt SLP Vis Weather Sky Remarks
2019-01-16 00:00 24 18 19 75 320° 5 - - 30.01 0 None
2019-01-15 23:00 24 18 20 76 310° 3 - - 29.98 0 None
2019-01-15 22:00 26 18 - 72 320° 2 - - 29.96 0 None
2019-01-15 21:00 24 17 19 75 320° 3 - - 29.94 0 None
2019-01-15 20:00 23 16 16 72 360° 6 - - 29.93 0 None
2019-01-15 19:00 28 15 15 58 330° 10 18 - 29.90 0 None
2019-01-15 18:00 26 15 18 62 320° 8 - - 29.87 0 None
2019-01-15 17:00 25 15 16 64 310° 8 - - 29.86 0 None
2019-01-15 16:00 24 15 15 67 320° 8 - - 29.88 0 None
2019-01-15 15:00 22 13 15 67 320° 6 - - 29.89 0 None
2019-01-15 14:00 18 11 11 74 300° 5 - - 29.90 0 None
2019-01-15 13:00 15 11 7 85 300° 5 - - 29.89 0 None
2019-01-15 12:00 11 7 5 82 240° 3 - - 29.87 0 None
2019-01-15 11:00 7 4 -2 89 210° 5 - - 29.87 0 None
2019-01-15 10:00 7 5 - 89 220° 2 - - 29.87 0 None
2019-01-15 09:00 7 5 - 90 250° 1 - - 29.88 0 None
2019-01-15 08:00 8 4 - 83 180° 2 - - 29.90 0 None
2019-01-15 07:00 6 4 - 90 210° 2 - - 29.90 0 None
2019-01-15 06:00 6 4 -2 89 200° 5 - - 29.90 0 None
2019-01-15 05:00 6 4 -1 89 180° 3 - - 29.92 0 None
2019-01-15 04:00 7 5 0 91 200° 3 - - 29.96 0 None
2019-01-15 03:00 8 6 1 91 200° 3 - - 29.98 0 None
2019-01-15 02:00 8 5 1 89 200° 3 - - 30.02 0 None
2019-01-15 01:00 9 6 0 90 200° 5 - - 30.04 0 None

Support USWX by starting your Amazon purchase here.